Time;durP1;ratioP1;P1;durP2;ratioP2;P2;SDS_P1;SDS_P2;PMS_P1;PMS_P2;Temp;Humidity;BMP_temperature;BMP_pressure;BME280_temperature;BME280_humidity;BME280_pressure;Samples;Min_cycle;Max_cycle;Signal;HPM_P1;HPM_P2
2022/01/17 00:01:30;;;;;;;147.23;120.30;;;0.10;99.90;;;;;;4951286;28;20086;-59
2022/01/17 00:03:56;;;;;;;103.30;82.22;;;0.10;99.90;;;;;;4951580;29;20194;-59
2022/01/17 00:06:22;;;;;;;84.68;63.58;;;0.20;99.90;;;;;;4950655;29;20033;-59
2022/01/17 00:08:49;;;;;;;69.35;55.83;;;0.20;99.90;;;;;;4949298;29;20038;-59
2022/01/17 00:11:16;;;;;;;74.80;58.92;;;0.40;99.90;;;;;;4950834;28;20022;-60
2022/01/17 00:13:42;;;;;;;77.68;58.38;;;0.60;99.90;;;;;;4953553;29;20023;-60
2022/01/17 00:16:15;;;;;;;82.57;61.08;;;0.50;99.90;;;;;;4957134;28;20031;-59
2022/01/17 00:21:07;;;;;;;71.45;56.20;;;0.30;99.90;;;;;;4954308;29;20070;-59
2022/01/17 00:23:33;;;;;;;69.80;53.63;;;0.30;99.90;;;;;;4954302;29;20050;-59
2022/01/17 00:25:59;;;;;;;72.90;56.40;;;0.40;99.90;;;;;;4952910;29;20103;-59
2022/01/17 00:28:25;;;;;;;66.57;51.40;;;0.30;99.90;;;;;;4954988;29;20471;-59
2022/01/17 00:30:51;;;;;;;73.75;55.00;;;0.40;99.90;;;;;;4954765;29;20039;-58
2022/01/17 00:33:16;;;;;;;68.70;52.38;;;0.40;99.90;;;;;;4952416;28;20038;-58
2022/01/17 00:35:42;;;;;;;76.43;57.90;;;0.40;99.90;;;;;;4952668;29;20037;-60
2022/01/17 00:38:11;;;;;;;78.10;58.67;;;0.50;99.90;;;;;;4952903;29;20083;-59
2022/01/17 00:40:37;;;;;;;73.15;55.75;;;0.40;99.90;;;;;;4953889;28;20111;-58
2022/01/17 00:43:02;;;;;;;70.80;54.55;;;0.40;99.90;;;;;;4955662;29;20465;-59
2022/01/17 00:45:29;;;;;;;73.55;54.53;;;0.50;99.90;;;;;;4953857;29;20042;-59
2022/01/17 00:47:56;;;;;;;71.50;54.63;;;0.40;99.90;;;;;;4952216;29;20027;-59
2022/01/17 00:50:28;;;;;;;66.25;51.70;;;0.50;99.90;;;;;;4951052;28;20035;-59
2022/01/17 00:52:53;;;;;;;71.50;54.42;;;0.40;99.90;;;;;;4952561;28;20119;-59
2022/01/17 00:55:19;;;;;;;65.80;49.88;;;0.40;99.90;;;;;;4955263;29;20110;-60
2022/01/17 00:57:45;;;;;;;66.93;51.58;;;0.40;99.90;;;;;;4953770;28;20090;-59
2022/01/17 01:00:12;;;;;;;65.72;49.63;;;0.40;99.90;;;;;;4953474;28;20518;-60
2022/01/17 01:02:38;;;;;;;78.38;56.13;;;0.30;99.90;;;;;;4953298;29;20035;-60
2022/01/17 01:05:06;;;;;;;76.10;56.00;;;0.40;99.90;;;;;;4952464;29;20063;-60
2022/01/17 01:07:31;;;;;;;63.50;49.08;;;0.40;99.90;;;;;;4953987;28;20058;-59
2022/01/17 01:10:10;;;;;;;66.88;51.65;;;0.30;99.90;;;;;;4954715;29;20039;-59
2022/01/17 01:12:38;;;;;;;68.60;51.97;;;0.40;99.90;;;;;;4952000;29;20035;-58
2022/01/17 01:15:12;;;;;;;64.72;48.63;;;0.20;99.90;;;;;;4951755;28;20031;-59
2022/01/17 01:17:55;;;;;;;59.75;45.75;;;0.40;99.90;;;;;;4950713;29;20058;-59
2022/01/17 01:28:22;;;;;;;68.13;49.28;;;0.60;99.90;;;;;;4951733;29;20073;-59
2022/01/17 01:30:51;;;;;;;70.35;50.60;;;0.30;99.90;;;;;;4953009;29;20058;-60
2022/01/17 01:33:25;;;;;;;71.47;50.97;;;0.20;99.90;;;;;;4951639;28;20031;-59
2022/01/17 01:35:58;;;;;;;75.22;53.35;;;0.10;99.90;;;;;;4951532;29;20031;-60
2022/01/17 01:38:23;;;;;;;69.28;50.63;;;0.10;99.90;;;;;;4953342;29;20059;-59
2022/01/17 01:40:49;;;;;;;61.47;44.25;;;0.00;99.90;;;;;;4952960;28;20515;-59
2022/01/17 01:43:15;;;;;;;70.65;50.50;;;0.10;99.90;;;;;;4954926;29;20054;-59
2022/01/17 01:45:40;;;;;;;69.85;50.78;;;0.20;99.90;;;;;;4951904;29;20031;-59
2022/01/17 01:48:08;;;;;;;60.05;46.25;;;0.30;99.90;;;;;;4951369;29;20114;-59
2022/01/17 01:50:34;;;;;;;62.63;47.63;;;0.40;99.90;;;;;;4951404;29;20527;-59
2022/01/17 01:53:00;;;;;;;65.32;49.28;;;0.20;99.90;;;;;;4951484;29;20059;-59
2022/01/17 01:55:26;;;;;;;67.18;50.50;;;0.10;99.90;;;;;;4954093;29;20061;-66
2022/01/17 01:57:52;;;;;;;69.68;50.92;;;0.00;99.90;;;;;;4952802;29;20031;-62
2022/01/17 02:00:18;;;;;;;62.58;48.47;;;-0.10;99.90;;;;;;4949612;29;20019;-60
2022/01/17 02:02:44;;;;;;;69.28;50.20;;;-0.20;99.90;;;;;;4952552;29;20035;-59
2022/01/17 02:05:10;;;;;;;63.60;48.35;;;-0.20;99.90;;;;;;4951416;29;20053;-59
2022/01/17 02:07:36;;;;;;;68.68;49.90;;;-0.20;99.90;;;;;;4952123;28;20051;-59
2022/01/17 02:10:04;;;;;;;61.85;48.28;;;-0.10;99.90;;;;;;4954406;29;20082;-59
2022/01/17 02:12:30;;;;;;;72.82;53.97;;;0.00;99.90;;;;;;4950842;29;20028;-59
2022/01/17 02:14:56;;;;;;;66.85;49.67;;;-0.10;99.90;;;;;;4950528;29;20429;-59
2022/01/17 02:17:24;;;;;;;65.18;47.35;;;-0.10;99.90;;;;;;4952042;28;20030;-59
2022/01/17 02:19:52;;;;;;;65.18;48.22;;;0.10;99.90;;;;;;4952341;28;20058;-59
2022/01/17 02:22:18;;;;;;;66.70;48.70;;;0.10;99.90;;;;;;4953566;28;20027;-59
2022/01/17 02:24:44;;;;;;;60.47;46.22;;;0.00;99.90;;;;;;4952006;29;20027;-58
2022/01/17 02:27:09;;;;;;;64.75;48.45;;;-0.10;99.90;;;;;;4950557;28;20042;-60
2022/01/17 02:29:35;;;;;;;69.90;52.05;;;-0.20;99.90;;;;;;4950273;28;20258;-59
2022/01/17 02:32:01;;;;;;;72.32;53.13;;;-0.20;99.90;;;;;;4951136;28;20024;-60
2022/01/17 02:34:27;;;;;;;75.78;53.67;;;-0.20;99.90;;;;;;4952357;28;20392;-58
2022/01/17 02:36:53;;;;;;;75.78;53.08;;;-0.30;99.90;;;;;;4952544;29;20038;-59
2022/01/17 02:39:20;;;;;;;73.82;51.50;;;-0.30;99.90;;;;;;4950480;29;20031;-60
2022/01/17 02:41:49;;;;;;;75.72;54.97;;;-0.40;99.90;;;;;;4951720;29;20027;-59
2022/01/17 02:44:15;;;;;;;71.88;52.28;;;-0.50;99.90;;;;;;4949971;29;20416;-60
2022/01/17 02:46:41;;;;;;;77.43;54.38;;;-0.60;99.90;;;;;;4935363;29;20024;-59
2022/01/17 02:49:08;;;;;;;70.78;51.10;;;-0.60;99.90;;;;;;4954289;29;20042;-59
2022/01/17 02:51:34;;;;;;;69.70;52.05;;;-0.60;99.90;;;;;;4950346;29;20408;-58
2022/01/17 02:54:01;;;;;;;71.03;51.35;;;-0.60;99.90;;;;;;4950184;29;20035;-59
2022/01/17 02:56:27;;;;;;;73.55;50.55;;;-0.50;99.90;;;;;;4951547;29;20543;-57
2022/01/17 02:58:53;;;;;;;73.57;52.97;;;-0.50;99.90;;;;;;4951141;28;20047;-59
2022/01/17 03:01:22;;;;;;;74.15;52.42;;;-0.40;99.90;;;;;;4953216;29;20392;-59
2022/01/17 03:03:48;;;;;;;73.18;52.13;;;-0.50;99.90;;;;;;4953240;29;20019;-59
2022/01/17 03:06:15;;;;;;;65.57;47.25;;;-0.60;99.90;;;;;;4949951;28;20082;-60
2022/01/17 03:08:42;;;;;;;134.38;79.55;;;-0.40;99.90;;;;;;4949644;29;20118;-60
2022/01/17 03:11:12;;;;;;;81.15;55.78;;;-0.20;99.90;;;;;;4949484;29;20074;-58
2022/01/17 03:13:39;;;;;;;68.15;50.35;;;-0.20;99.90;;;;;;4950752;28;20576;-58
2022/01/17 03:16:11;;;;;;;77.90;54.08;;;-0.10;99.90;;;;;;4953306;29;20022;-59
2022/01/17 03:18:47;;;;;;;75.03;53.20;;;-0.20;99.90;;;;;;4950251;28;20507;-60
2022/01/17 03:21:17;;;;;;;75.50;52.08;;;-0.10;99.90;;;;;;4951258;28;20031;-59
2022/01/17 03:23:45;;;;;;;74.50;51.13;;;-0.20;99.90;;;;;;4949531;28;20118;-60
2022/01/17 03:26:10;;;;;;;73.05;52.13;;;-0.20;99.90;;;;;;4949640;29;20646;-59
2022/01/17 03:28:37;;;;;;;70.72;50.28;;;-0.10;99.90;;;;;;4951114;28;20043;-59
2022/01/17 03:31:05;;;;;;;73.35;49.95;;;-0.20;99.90;;;;;;4953062;29;20043;-60
2022/01/17 03:33:31;;;;;;;69.57;50.08;;;-0.10;99.90;;;;;;4949599;29;20115;-60
2022/01/17 03:35:57;;;;;;;71.97;51.03;;;-0.10;99.90;;;;;;4951038;29;20035;-59
2022/01/17 03:38:26;;;;;;;75.00;52.28;;;0.00;99.90;;;;;;4950980;29;20049;-60
2022/01/17 03:40:52;;;;;;;74.65;53.75;;;-0.10;99.90;;;;;;4949745;29;20031;-59
2022/01/17 03:43:20;;;;;;;70.72;49.67;;;0.10;99.90;;;;;;4952240;29;20102;-59
2022/01/17 03:45:46;;;;;;;73.10;50.83;;;0.10;99.90;;;;;;4952934;28;20043;-59
2022/01/17 03:48:13;;;;;;;70.53;50.17;;;0.00;99.90;;;;;;4953480;29;20034;-59
2022/01/17 03:50:39;;;;;;;65.47;48.17;;;0.10;99.90;;;;;;4953587;29;20067;-59
2022/01/17 03:53:05;;;;;;;69.78;48.80;;;0.10;99.90;;;;;;4953512;29;20139;-59
2022/01/17 03:55:32;;;;;;;69.82;50.05;;;0.10;99.90;;;;;;4955002;28;20055;-59
2022/01/17 03:57:58;;;;;;;73.63;50.45;;;0.10;99.90;;;;;;4956011;29;20477;-59
2022/01/17 04:00:28;;;;;;;66.00;46.80;;;0.00;99.90;;;;;;4954548;29;20031;-59
2022/01/17 04:02:54;;;;;;;66.68;47.97;;;0.00;99.90;;;;;;4953523;29;20114;-59
2022/01/17 04:05:21;;;;;;;64.38;46.45;;;0.10;99.90;;;;;;4953279;28;20027;-59
2022/01/17 04:07:47;;;;;;;67.07;50.85;;;0.30;99.90;;;;;;4953189;29;20037;-59
2022/01/17 04:10:13;;;;;;;71.45;51.60;;;0.50;99.90;;;;;;4956859;29;20043;-59
2022/01/17 04:12:40;;;;;;;66.35;49.50;;;0.20;99.90;;;;;;4953796;29;20038;-59
2022/01/17 04:15:07;;;;;;;72.28;53.72;;;0.00;99.90;;;;;;4954204;29;20063;-59
2022/01/17 04:17:33;;;;;;;65.85;48.97;;;-0.10;99.90;;;;;;4954446;29;20054;-59
2022/01/17 04:20:06;;;;;;;63.08;48.30;;;-0.10;99.90;;;;;;4953072;29;20425;-59
2022/01/17 04:22:35;;;;;;;;;;;0.10;99.90;;;;;;4954969;28;20063;-59
2022/01/17 04:25:03;;;;;;;67.03;50.85;;;0.00;99.90;;;;;;4955577;28;19910;-59
2022/01/17 04:27:28;;;;;;;66.55;50.17;;;0.00;99.90;;;;;;4951569;29;20035;-60
2022/01/17 04:29:54;;;;;;;67.45;51.47;;;-0.10;99.90;;;;;;4952656;29;20035;-59
2022/01/17 04:32:20;;;;;;;62.58;47.75;;;0.10;99.90;;;;;;4953083;29;20078;-59
2022/01/17 04:34:46;;;;;;;75.40;55.40;;;0.10;99.90;;;;;;4952971;29;20031;-59
2022/01/17 04:37:11;;;;;;;66.45;52.08;;;0.20;99.90;;;;;;4956588;29;20019;-58
2022/01/17 04:39:37;;;;;;;72.25;53.70;;;0.00;99.90;;;;;;4953986;28;20066;-59
2022/01/17 04:42:11;;;;;;;69.47;53.55;;;-0.20;99.90;;;;;;4952526;29;20062;-58
2022/01/17 04:47:21;;;;;;;78.90;56.47;;;-0.20;99.90;;;;;;4953011;29;20074;-59
2022/01/17 04:49:47;;;;;;;77.10;59.00;;;-0.30;99.90;;;;;;4952374;29;20067;-59
2022/01/17 04:52:14;;;;;;;90.15;67.18;;;-0.30;99.90;;;;;;4956478;29;20484;-58
2022/01/17 04:54:42;;;;;;;94.03;70.43;;;-0.20;99.90;;;;;;4952829;29;20377;-60
2022/01/17 04:57:12;;;;;;;88.07;68.93;;;-0.30;99.90;;;;;;4953286;28;20054;-59
2022/01/17 04:59:39;;;;;;;91.75;70.15;;;-0.20;99.90;;;;;;4952189;29;20035;-59
2022/01/17 05:02:05;;;;;;;84.47;61.20;;;-0.20;99.90;;;;;;4952454;28;20067;-59
2022/01/17 05:04:32;;;;;;;80.03;57.20;;;-0.20;99.90;;;;;;4954371;28;20035;-60
2022/01/17 05:06:57;;;;;;;77.70;56.53;;;-0.30;99.90;;;;;;4954475;29;20027;-59
2022/01/17 05:09:23;;;;;;;73.95;54.42;;;-0.40;99.90;;;;;;4951767;29;20039;-58
2022/01/17 05:11:49;;;;;;;70.32;52.58;;;-0.40;99.90;;;;;;4952084;29;20031;-60
2022/01/17 05:14:15;;;;;;;65.70;50.58;;;-0.30;99.90;;;;;;4952135;29;20023;-59
2022/01/17 05:16:56;;;;;;;75.47;54.20;;;-0.10;99.90;;;;;;4953497;28;20063;-60
2022/01/17 05:22:06;;;;;;;69.15;51.13;;;-0.10;99.90;;;;;;4955510;29;20030;-59
2022/01/17 05:24:32;;;;;;;78.22;58.58;;;0.10;99.90;;;;;;4954785;29;20039;-59
2022/01/17 05:26:57;;;;;;;63.17;47.72;;;-0.20;99.90;;;;;;4951746;28;20063;-59
2022/01/17 05:29:23;;;;;;;76.53;55.45;;;0.10;99.90;;;;;;4951783;28;20115;-59
2022/01/17 05:31:49;;;;;;;62.65;48.13;;;-0.20;99.90;;;;;;4953319;29;20038;-60
2022/01/17 05:34:14;;;;;;;62.88;49.65;;;-0.30;99.90;;;;;;4955494;28;20035;-59
2022/01/17 05:36:40;;;;;;;76.60;55.08;;;0.00;99.90;;;;;;4953659;29;20028;-57
2022/01/17 05:39:06;;;;;;;74.10;55.70;;;-0.10;99.90;;;;;;4951555;29;20039;-59
2022/01/17 05:41:32;;;;;;;82.90;59.42;;;-0.30;99.90;;;;;;4951634;28;20050;-59
2022/01/17 05:43:58;;;;;;;62.80;50.70;;;-0.40;99.90;;;;;;4951603;29;20051;-59
2022/01/17 05:46:24;;;;;;;71.75;55.72;;;-0.10;99.90;;;;;;4953712;29;20038;-58
2022/01/17 05:48:50;;;;;;;77.30;58.85;;;-0.10;99.90;;;;;;4953024;28;20179;-57
2022/01/17 05:51:15;;;;;;;86.13;62.92;;;0.00;99.90;;;;;;4951427;29;20106;-59
2022/01/17 05:53:41;;;;;;;73.80;57.92;;;0.00;99.90;;;;;;4951266;29;20412;-59
2022/01/17 05:56:07;;;;;;;95.30;69.93;;;-0.20;99.90;;;;;;4952669;28;20019;-59
2022/01/17 05:58:33;;;;;;;94.50;70.55;;;-0.10;99.90;;;;;;4952899;29;20032;-59
2022/01/17 06:00:59;;;;;;;87.97;66.57;;;-0.20;99.90;;;;;;4953854;29;20042;-59
2022/01/17 06:03:25;;;;;;;81.90;60.85;;;-0.20;99.90;;;;;;4951359;29;20027;-59
2022/01/17 06:05:52;;;;;;;79.53;61.15;;;-0.20;99.90;;;;;;4949423;29;20027;-59
2022/01/17 06:08:18;;;;;;;78.47;60.95;;;0.00;99.90;;;;;;4950815;28;20024;-59
2022/01/17 06:10:44;;;;;;;71.85;56.28;;;0.00;99.90;;;;;;4952120;29;20043;-59
2022/01/17 06:13:10;;;;;;;67.18;51.72;;;-0.20;99.90;;;;;;4955144;29;20031;-59
2022/01/17 06:15:35;;;;;;;67.00;53.50;;;-0.20;99.90;;;;;;4952239;29;20027;-59
2022/01/17 06:18:01;;;;;;;69.78;53.17;;;-0.20;99.90;;;;;;4951169;29;20642;-58
2022/01/17 06:20:27;;;;;;;68.45;52.97;;;-0.30;99.90;;;;;;4950598;29;20033;-58
2022/01/17 06:22:53;;;;;;;69.53;52.72;;;-0.30;99.90;;;;;;4950899;28;20028;-58
2022/01/17 06:25:18;;;;;;;66.18;51.60;;;-0.20;99.90;;;;;;4954020;29;20046;-58
2022/01/17 06:27:44;;;;;;;73.78;55.35;;;-0.20;99.90;;;;;;4951796;29;20038;-59
2022/01/17 06:30:13;;;;;;;66.38;51.85;;;-0.10;99.90;;;;;;4950383;29;20039;-59
2022/01/17 06:32:42;;;;;;;68.10;54.63;;;-0.10;99.90;;;;;;4950284;29;20027;-58
2022/01/17 06:35:08;;;;;;;101.85;84.88;;;-0.10;99.90;;;;;;4951820;28;20039;-59
2022/01/17 06:37:35;;;;;;;102.78;86.82;;;-0.30;99.90;;;;;;4952320;28;20561;-58
2022/01/17 06:40:02;;;;;;;82.68;60.83;;;-0.30;99.90;;;;;;4953366;29;20023;-58
2022/01/17 06:42:28;;;;;;;74.60;57.53;;;-0.20;99.90;;;;;;4950192;28;20042;-59
2022/01/17 06:44:53;;;;;;;68.95;54.40;;;-0.20;99.90;;;;;;4950354;29;20031;-57
2022/01/17 06:47:20;;;;;;;77.20;59.65;;;-0.10;99.90;;;;;;4950285;29;20039;-59
2022/01/17 06:49:46;;;;;;;70.43;54.92;;;0.00;99.90;;;;;;4950304;29;20114;-58
2022/01/17 06:52:11;;;;;;;65.78;49.63;;;0.40;99.90;;;;;;4954464;28;20445;-58
2022/01/17 06:54:37;;;;;;;64.55;50.38;;;0.40;99.90;;;;;;4952110;29;20031;-59
2022/01/17 06:57:03;;;;;;;65.70;53.03;;;0.40;99.90;;;;;;4950068;29;20035;-59
2022/01/17 06:59:29;;;;;;;69.18;54.10;;;0.40;99.90;;;;;;4949990;28;20030;-59
2022/01/17 07:01:55;;;;;;;62.75;50.25;;;0.30;99.90;;;;;;4950245;29;20401;-59
2022/01/17 07:04:21;;;;;;;59.40;47.65;;;0.30;99.90;;;;;;4952612;28;20030;-59
2022/01/17 07:06:46;;;;;;;62.33;47.90;;;0.30;99.90;;;;;;4952858;29;20059;-57
2022/01/17 07:09:16;;;;;;;63.50;48.35;;;0.50;99.90;;;;;;4949768;29;20540;-59
2022/01/17 07:11:42;;;;;;;63.38;47.78;;;0.60;99.90;;;;;;4950048;29;20082;-62
2022/01/17 07:14:10;;;;;;;59.00;46.80;;;0.60;99.90;;;;;;4951994;29;20027;-58
2022/01/17 07:16:42;;;;;;;61.47;46.08;;;0.60;99.90;;;;;;4951466;28;20110;-58
2022/01/17 07:19:09;;;;;;;59.00;44.92;;;0.60;99.90;;;;;;4953116;29;20038;-58
2022/01/17 07:21:35;;;;;;;57.35;44.35;;;0.70;99.90;;;;;;4949626;29;20027;-58
2022/01/17 07:24:01;;;;;;;62.15;46.67;;;0.70;99.90;;;;;;4949874;29;20393;-60
2022/01/17 07:26:27;;;;;;;71.97;52.85;;;0.80;99.90;;;;;;4949960;29;20023;-58
2022/01/17 07:28:53;;;;;;;75.43;52.45;;;0.70;99.90;;;;;;4949642;29;20122;-58
2022/01/17 07:31:19;;;;;;;53.65;41.42;;;0.80;99.90;;;;;;4952805;28;20029;-59
2022/01/17 07:33:45;;;;;;;54.63;41.42;;;1.00;99.90;;;;;;4951866;29;20032;-59
2022/01/17 07:36:16;;;;;;;48.17;38.97;;;1.10;99.90;;;;;;4949712;29;20032;-59
2022/01/17 07:38:42;;;;;;;47.15;38.17;;;0.90;99.90;;;;;;4949664;28;20381;-59
2022/01/17 07:41:08;;;;;;;53.78;42.33;;;1.00;99.90;;;;;;4949952;29;20027;-59
2022/01/17 07:43:35;;;;;;;53.83;43.75;;;0.80;99.90;;;;;;4950933;28;20062;-59
2022/01/17 07:46:06;;;;;;;55.05;44.65;;;0.80;99.90;;;;;;4951269;29;20035;-59
2022/01/17 07:51:00;;;;;;;52.88;42.05;;;0.80;99.90;;;;;;4949767;29;20035;-59
2022/01/17 07:53:26;;;;;;;53.22;41.95;;;0.90;99.90;;;;;;4951332;29;20028;-60
2022/01/17 07:55:52;;;;;;;46.95;38.88;;;0.90;99.90;;;;;;4949615;29;20028;-60
2022/01/17 07:58:17;;;;;;;67.00;53.00;;;1.00;99.90;;;;;;4952775;28;20420;-58
2022/01/17 08:00:43;;;;;;;57.08;46.08;;;1.00;99.90;;;;;;4950492;29;20087;-59
2022/01/17 08:03:09;;;;;;;50.53;41.78;;;1.10;99.90;;;;;;4948959;29;20463;-58
2022/01/17 08:05:35;;;;;;;53.08;42.40;;;1.40;99.90;;;;;;4948920;29;20023;-59
2022/01/17 08:08:01;;;;;;;52.00;41.47;;;1.40;99.90;;;;;;4945065;29;20038;-58
2022/01/17 08:10:27;;;;;;;54.00;42.85;;;1.30;99.90;;;;;;4944013;28;20039;-58
2022/01/17 08:12:53;;;;;;;88.60;63.33;;;1.30;99.90;;;;;;4947070;29;20035;-59
2022/01/17 08:15:18;;;;;;;103.85;68.00;;;1.30;99.90;;;;;;4947031;29;20023;-57
2022/01/17 08:17:45;;;;;;;152.10;88.20;;;1.30;99.90;;;;;;4946530;29;20042;-57
2022/01/17 08:20:12;;;;;;;162.15;84.78;;;1.50;99.90;;;;;;4945675;29;20023;-57
2022/01/17 08:22:38;;;;;;;118.95;78.65;;;1.70;99.90;;;;;;4944484;28;20032;-57
2022/01/17 08:25:05;;;;;;;123.72;71.20;;;1.70;99.90;;;;;;4952387;29;20030;-58
2022/01/17 08:27:30;;;;;;;100.38;58.42;;;1.60;99.90;;;;;;4949179;28;20031;-58
2022/01/17 08:29:57;;;;;;;73.82;48.28;;;1.90;99.90;;;;;;4949035;29;20098;-59
2022/01/17 08:32:23;;;;;;;70.45;48.10;;;2.20;99.90;;;;;;4950801;28;20492;-58
2022/01/17 08:34:48;;;;;;;63.85;45.03;;;2.20;99.90;;;;;;4952632;29;20046;-58
2022/01/17 08:37:14;;;;;;;59.80;44.08;;;2.10;99.90;;;;;;4956234;28;20035;-58
2022/01/17 08:39:40;;;;;;;59.95;43.40;;;2.00;99.90;;;;;;4954830;29;20024;-59
2022/01/17 08:42:10;;;;;;;57.40;44.50;;;1.80;99.90;;;;;;4952586;28;20480;-59
2022/01/17 08:44:37;;;;;;;62.60;45.55;;;1.80;99.90;;;;;;4952137;28;20464;-58
2022/01/17 08:47:03;;;;;;;69.43;46.15;;;1.80;99.90;;;;;;4952968;29;20398;-58
2022/01/17 08:49:29;;;;;;;76.75;49.38;;;1.80;99.90;;;;;;4953599;28;20488;-59
2022/01/17 08:51:55;;;;;;;87.57;55.28;;;1.80;99.90;;;;;;4956385;29;20046;-59
2022/01/17 08:54:21;;;;;;;73.00;46.05;;;1.90;99.90;;;;;;4952373;28;20425;-59
2022/01/17 08:56:47;;;;;;;61.60;46.60;;;2.00;99.90;;;;;;4952361;29;20066;-59
2022/01/17 08:59:12;;;;;;;76.47;50.45;;;2.10;99.90;;;;;;4952132;29;20031;-62
2022/01/17 09:01:38;;;;;;;87.88;56.88;;;2.10;99.90;;;;;;4953526;29;20028;-59
2022/01/17 09:04:04;;;;;;;76.00;46.53;;;2.10;99.90;;;;;;4955422;29;20023;-59
2022/01/17 09:06:30;;;;;;;95.10;67.45;;;2.10;99.90;;;;;;4951930;29;20042;-59
2022/01/17 09:08:56;;;;;;;74.05;47.55;;;2.20;99.90;;;;;;4951908;29;20412;-58
2022/01/17 09:11:22;;;;;;;102.25;57.78;;;2.30;99.90;;;;;;4953358;28;20158;-59
2022/01/17 09:13:48;;;;;;;95.63;57.95;;;2.40;99.90;;;;;;4952113;29;20031;-59
2022/01/17 09:16:14;;;;;;;101.38;56.40;;;2.40;99.90;;;;;;4955562;28;20023;-58
2022/01/17 09:18:39;;;;;;;90.97;54.30;;;2.60;99.90;;;;;;4952489;29;20042;-59
2022/01/17 09:21:05;;;;;;;104.13;54.53;;;2.60;99.90;;;;;;4951855;28;20098;-58
2022/01/17 09:23:31;;;;;;;115.05;56.67;;;2.60;99.90;;;;;;4951953;29;20122;-59
2022/01/17 09:25:57;;;;;;;108.03;55.00;;;2.70;99.90;;;;;;4951719;29;20042;-59
2022/01/17 09:28:23;;;;;;;94.03;51.53;;;2.70;99.90;;;;;;4953935;28;20023;-59
2022/01/17 09:30:50;;;;;;;120.50;56.83;;;2.80;99.90;;;;;;4953258;28;20031;-59
2022/01/17 09:33:16;;;;;;;90.07;49.88;;;2.70;99.90;;;;;;4952070;29;20027;-59
2022/01/17 09:35:41;;;;;;;92.68;49.45;;;3.00;99.90;;;;;;4951660;29;20561;-59
2022/01/17 09:38:07;;;;;;;87.65;48.17;;;3.20;99.90;;;;;;4951699;29;20020;-59
2022/01/17 09:40:34;;;;;;;94.57;52.17;;;3.30;99.90;;;;;;4953060;28;20023;-59
2022/01/17 09:43:02;;;;;;;97.47;53.28;;;3.40;99.90;;;;;;4953892;28;20102;-59
2022/01/17 09:45:29;;;;;;;93.57;49.70;;;3.40;99.90;;;;;;4951218;29;20087;-59
2022/01/17 09:47:55;;;;;;;77.05;45.17;;;3.50;99.90;;;;;;4951439;28;20043;-59
2022/01/17 09:50:45;;;;;;;93.65;49.35;;;3.70;99.90;;;;;;4952509;29;20415;-59
2022/01/17 09:53:14;;;;;;;99.10;51.45;;;3.70;99.90;;;;;;4951546;28;20134;-59
2022/01/17 09:55:41;;;;;;;103.30;50.95;;;3.70;99.90;;;;;;4951882;28;20086;-59
2022/01/17 09:58:08;;;;;;;84.95;47.67;;;3.70;99.90;;;;;;4954561;29;20070;-58
2022/01/17 10:00:40;;;;;;;103.55;49.53;;;3.80;99.90;;;;;;4950996;28;20043;-59
2022/01/17 10:03:16;;;;;;;87.78;49.10;;;3.90;99.90;;;;;;4951008;28;20027;-59
2022/01/17 10:05:42;;;;;;;97.22;52.22;;;4.00;99.90;;;;;;4951024;28;20031;-59
2022/01/17 10:08:10;;;;;;;100.45;52.53;;;4.20;99.90;;;;;;4952659;28;20114;-59
2022/01/17 10:10:46;;;;;;;101.60;51.75;;;4.30;99.90;;;;;;4952080;28;20066;-59
2022/01/17 10:13:21;;;;;;;94.78;53.90;;;4.50;99.90;;;;;;4955112;29;20035;-59
2022/01/17 10:15:58;;;;;;;94.30;50.75;;;4.60;99.90;;;;;;4953577;29;20508;-59
2022/01/17 10:18:46;;;;;;;96.50;52.67;;;4.80;99.90;;;;;;4950852;29;20512;-59
2022/01/17 10:21:35;;;;;;;98.70;52.22;;;4.80;99.90;;;;;;4950704;28;20039;-59
2022/01/17 10:34:55;;;;;;;82.75;47.70;;;5.50;99.90;;;;;;4936311;29;20026;-59
2022/01/17 10:37:24;;;;;;;88.95;46.13;;;5.50;99.90;;;;;;4953109;28;20115;-60
2022/01/17 10:39:57;;;;;;;86.15;46.40;;;5.60;99.90;;;;;;4953090;29;20031;-60
2022/01/17 10:42:27;;;;;;;85.53;46.60;;;5.60;99.90;;;;;;4950480;28;20035;-58
2022/01/17 10:45:00;;;;;;;81.93;45.88;;;5.70;99.90;;;;;;4950115;28;20051;-58
2022/01/17 10:47:28;;;;;;;84.65;45.38;;;5.50;99.90;;;;;;4952031;29;20134;-59
2022/01/17 10:50:05;;;;;;;82.38;43.88;;;5.60;99.90;;;;;;4950377;29;20118;-58
2022/01/17 10:52:39;;;;;;;86.63;42.65;;;5.80;99.90;;;;;;4952179;28;20070;-59
2022/01/17 10:55:13;;;;;;;82.05;45.08;;;5.90;99.90;;;;;;4952773;28;20163;-57
2022/01/17 10:57:45;;;;;;;87.05;46.63;;;6.00;99.90;;;;;;4950089;29;20401;-58
2022/01/17 11:00:23;;;;;;;72.57;41.55;;;6.30;99.90;;;;;;4950426;29;20031;-59
2022/01/17 11:02:54;;;;;;;75.05;41.53;;;6.50;99.90;;;;;;4950061;29;20018;-59
2022/01/17 11:05:22;;;;;;;71.63;41.35;;;6.40;99.90;;;;;;4950078;28;20109;-59
2022/01/17 11:07:51;;;;;;;68.57;40.58;;;6.40;99.90;;;;;;4951843;28;20131;-58
2022/01/17 11:10:23;;;;;;;68.68;40.88;;;6.50;99.90;;;;;;4953126;28;20043;-59
2022/01/17 11:12:51;;;;;;;67.53;37.40;;;6.40;99.90;;;;;;4951777;29;20428;-59
2022/01/17 11:15:18;;;;;;;63.55;38.70;;;6.40;99.90;;;;;;4949691;29;20035;-59
2022/01/17 11:17:51;;;;;;;61.90;37.28;;;6.30;99.90;;;;;;4949810;28;20082;-59
2022/01/17 11:20:21;;;;;;;67.07;38.05;;;6.60;99.90;;;;;;4949982;28;20090;-59
2022/01/17 11:22:50;;;;;;;50.78;33.35;;;6.20;99.90;;;;;;4935022;29;20106;-59
2022/01/17 11:25:23;;;;;;;42.15;28.17;;;6.20;99.90;;;;;;4953019;28;20034;-58
2022/01/17 11:27:50;;;;;;;52.67;32.35;;;6.50;99.90;;;;;;4952560;29;20023;-57
2022/01/17 11:30:16;;;;;;;52.40;33.35;;;6.40;99.90;;;;;;4949792;28;20039;-58
2022/01/17 11:32:46;;;;;;;31.10;20.80;;;6.80;99.90;;;;;;4949424;28;20118;-59
2022/01/17 11:35:14;;;;;;;32.88;20.20;;;6.40;99.90;;;;;;4950113;29;20034;-59
2022/01/17 11:37:45;;;;;;;32.33;20.92;;;6.50;99.90;;;;;;4950587;28;20020;-59
2022/01/17 11:40:12;;;;;;;32.33;20.48;;;6.90;99.90;;;;;;4953351;29;20411;-59
2022/01/17 11:42:47;;;;;;;26.80;18.35;;;7.30;99.90;;;;;;4949494;29;20496;-58
2022/01/17 11:45:21;;;;;;;25.02;17.20;;;7.30;99.90;;;;;;4949832;29;20031;-59
2022/01/17 11:47:48;;;;;;;23.88;17.20;;;7.00;99.90;;;;;;4951070;29;20106;-59
2022/01/17 11:50:36;;;;;;;25.35;17.35;;;7.10;99.90;;;;;;4949600;29;20043;-59
2022/01/17 11:53:10;;;;;;;23.13;16.35;;;7.10;99.90;;;;;;4936509;29;20031;-60
2022/01/17 11:55:47;;;;;;;31.60;22.95;;;7.10;99.90;;;;;;4950924;29;20031;-59
2022/01/17 11:58:29;;;;;;;24.40;16.90;;;7.20;99.90;;;;;;4953980;29;20496;-59
2022/01/17 12:00:58;;;;;;;25.73;17.98;;;7.60;99.90;;;;;;4951207;29;20065;-60
2022/01/17 12:03:48;;;;;;;24.88;18.00;;;7.60;99.90;;;;;;4949610;29;20055;-59
2022/01/17 12:06:35;;;;;;;28.92;18.98;;;7.40;99.90;;;;;;4942914;28;20126;-59
2022/01/17 12:09:19;;;;;;;29.27;19.33;;;7.20;99.90;;;;;;4954095;29;20074;-59
2022/01/17 12:11:46;;;;;;;29.67;21.13;;;7.30;99.90;;;;;;4953212;29;20035;-59
2022/01/17 12:14:23;;;;;;;23.75;17.30;;;7.50;99.90;;;;;;4953665;29;20369;-59
2022/01/17 12:16:49;;;;;;;22.02;14.45;;;8.10;99.90;;;;;;4938043;29;20444;-58
2022/01/17 12:19:15;;;;;;;20.08;15.13;;;7.60;99.90;;;;;;4956481;29;20110;-57
2022/01/17 12:21:44;;;;;;;19.98;14.40;;;8.00;99.90;;;;;;4953484;29;20091;-59
2022/01/17 12:24:18;;;;;;;21.20;15.32;;;7.70;99.90;;;;;;4952282;29;20392;-60
2022/01/17 12:27:09;;;;;;;22.58;15.68;;;7.80;99.90;;;;;;4954177;29;20027;-59
2022/01/17 12:29:52;;;;;;;21.25;14.98;;;8.20;99.90;;;;;;4952700;29;20093;-58
2022/01/17 12:32:23;;;;;;;20.05;14.30;;;8.50;99.90;;;;;;4952829;29;20057;-57
2022/01/17 12:34:52;;;;;;;25.38;18.20;;;8.80;99.90;;;;;;4937939;29;20034;-58
2022/01/17 12:37:48;;;;;;;19.35;14.20;;;8.90;99.90;;;;;;4956298;28;20110;-57
2022/01/17 12:40:19;;;;;;;17.25;13.32;;;8.20;99.90;;;;;;4947762;29;20042;-58
2022/01/17 12:43:00;;;;;;;23.92;17.67;;;8.20;99.90;;;;;;4953675;29;20527;-59
2022/01/17 12:45:44;;;;;;;28.75;23.30;;;8.50;99.90;;;;;;4954399;29;20102;-58
2022/01/17 12:48:14;;;;;;;26.33;21.33;;;8.70;99.90;;;;;;4952618;28;20396;-57
2022/01/17 12:50:42;;;;;;;20.23;14.93;;;8.60;99.90;;;;;;4952281;29;20416;-57
2022/01/17 12:53:10;;;;;;;38.30;31.65;;;8.30;99.90;;;;;;4952077;29;20038;-58
2022/01/17 12:55:46;;;;;;;32.72;24.50;;;8.60;99.90;;;;;;4953766;28;20049;-58
2022/01/17 12:58:18;;;;;;;28.05;20.52;;;8.50;99.90;;;;;;4956306;29;20028;-58
2022/01/17 13:01:08;;;;;;;16.80;13.32;;;8.80;99.90;;;;;;4953275;29;20118;-57
2022/01/17 13:03:36;;;;;;;19.88;15.68;;;8.50;99.90;;;;;;4952052;28;20036;-59
2022/01/17 13:06:05;;;;;;;18.95;13.52;;;8.30;99.90;;;;;;4953180;28;20547;-59
2022/01/17 13:08:33;;;;;;;53.67;38.75;;;8.50;99.90;;;;;;4951227;29;20023;-58